createdAt,value
2019-01-11T00:01:23.576Z,4.83
2019-01-11T00:03:50.797Z,4.87
2019-01-11T00:06:18.004Z,4.33
2019-01-11T00:08:45.198Z,4.17
2019-01-11T00:11:12.700Z,4.80
2019-01-11T00:13:39.824Z,4.50
2019-01-11T00:16:07.003Z,5.00
2019-01-11T00:18:34.478Z,4.70
2019-01-11T00:21:01.690Z,5.00
2019-01-11T00:23:29.153Z,4.03
2019-01-11T00:25:56.362Z,4.50
2019-01-11T00:28:23.561Z,4.93
2019-01-11T00:30:50.726Z,4.60
2019-01-11T00:33:17.799Z,5.10
2019-01-11T00:35:44.903Z,4.37
2019-01-11T00:38:12.059Z,4.73
2019-01-11T00:40:39.212Z,4.53
2019-01-11T00:43:06.429Z,4.43
2019-01-11T00:45:33.586Z,5.23
2019-01-11T00:48:00.905Z,4.87
2019-01-11T00:50:28.589Z,5.10
2019-01-11T00:52:55.755Z,4.57
2019-01-11T00:55:23.128Z,5.20
2019-01-11T00:57:50.338Z,4.73
2019-01-11T01:00:19.204Z,5.60
2019-01-11T01:02:46.461Z,5.23
2019-01-11T01:05:14.494Z,5.30
2019-01-11T01:07:41.675Z,8.83
2019-01-11T01:10:09.060Z,5.43
2019-01-11T01:12:36.555Z,5.37
2019-01-11T01:15:06.867Z,5.90
2019-01-11T01:17:34.021Z,6.20
2019-01-11T01:20:01.218Z,5.90
2019-01-11T01:22:28.371Z,6.27
2019-01-11T01:24:55.853Z,6.73
2019-01-11T01:27:23.478Z,4.93
2019-01-11T01:29:50.663Z,5.97
2019-01-11T01:32:17.946Z,6.37
2019-01-11T01:34:45.145Z,6.40
2019-01-11T01:37:12.213Z,5.90
2019-01-11T01:39:39.364Z,6.57
2019-01-11T01:42:06.557Z,5.97
2019-01-11T01:44:33.711Z,6.10
2019-01-11T01:47:00.884Z,6.30
2019-01-11T01:49:28.384Z,5.50
2019-01-11T01:51:55.580Z,5.90
2019-01-11T01:54:22.739Z,5.93
2019-01-11T01:56:49.936Z,6.10
2019-01-11T01:59:17.092Z,7.10
2019-01-11T02:01:44.266Z,6.17
2019-01-11T02:04:11.478Z,6.27
2019-01-11T02:06:38.644Z,5.97
2019-01-11T02:09:06.920Z,6.00
2019-01-11T02:11:34.479Z,6.87
2019-01-11T02:14:01.924Z,6.80
2019-01-11T02:16:29.078Z,6.37
2019-01-11T02:18:56.316Z,6.20
2019-01-11T02:21:23.469Z,7.37
2019-01-11T02:23:50.625Z,5.97
2019-01-11T02:26:17.858Z,7.73
2019-01-11T02:28:45.025Z,6.43
2019-01-11T02:31:12.201Z,5.97
2019-01-11T02:33:39.394Z,7.00
2019-01-11T02:36:06.549Z,6.43
2019-01-11T02:38:33.762Z,7.90
2019-01-11T02:41:01.186Z,7.60
2019-01-11T02:43:28.666Z,7.63
2019-01-11T02:45:55.818Z,8.40
2019-01-11T02:48:22.995Z,8.37
2019-01-11T02:50:50.051Z,7.70
2019-01-11T02:53:17.244Z,7.30
2019-01-11T02:55:44.418Z,8.57
2019-01-11T02:58:11.593Z,7.70
2019-01-11T03:00:38.673Z,8.43
2019-01-11T03:03:05.978Z,7.57
2019-01-11T03:05:33.015Z,7.67
2019-01-11T03:08:00.208Z,7.80
2019-01-11T03:10:27.384Z,8.70
2019-01-11T03:12:54.564Z,7.37
2019-01-11T03:15:21.737Z,6.70
2019-01-11T03:17:48.827Z,5.80
2019-01-11T03:20:16.827Z,6.90
2019-01-11T03:22:44.004Z,6.00
2019-01-11T03:25:11.417Z,6.40
2019-01-11T03:27:38.636Z,6.57
2019-01-11T03:30:11.758Z,6.07
2019-01-11T03:32:39.272Z,7.13
2019-01-11T03:35:16.472Z,6.50
2019-01-11T03:37:45.296Z,6.80
2019-01-11T03:40:13.253Z,6.83
2019-01-11T03:42:40.304Z,6.37
2019-01-11T03:45:09.215Z,7.20
2019-01-11T03:47:36.586Z,6.87
2019-01-11T03:50:05.219Z,6.37
2019-01-11T03:52:32.393Z,6.97
2019-01-11T03:54:59.559Z,7.00
2019-01-11T03:57:26.721Z,7.83
2019-01-11T03:59:53.931Z,6.90
2019-01-11T04:02:21.096Z,7.77
2019-01-11T04:04:48.258Z,7.60
2019-01-11T04:07:15.494Z,7.17
2019-01-11T04:09:42.656Z,6.30
2019-01-11T04:12:09.838Z,6.80
2019-01-11T04:14:37.018Z,7.40
2019-01-11T04:17:04.160Z,7.17
2019-01-11T04:19:31.351Z,6.87
2019-01-11T04:22:06.543Z,7.67
2019-01-11T04:24:44.201Z,7.83
2019-01-11T04:27:11.410Z,8.27
2019-01-11T04:29:38.448Z,8.13
2019-01-11T04:32:05.671Z,8.70
2019-01-11T04:34:32.749Z,8.50
2019-01-11T04:36:59.936Z,8.37
2019-01-11T04:39:27.127Z,9.17
2019-01-11T04:41:54.310Z,9.40
2019-01-11T04:44:21.488Z,10.17
2019-01-11T04:46:48.647Z,10.33
2019-01-11T04:49:15.821Z,10.00
2019-01-11T04:51:42.976Z,10.23
2019-01-11T04:54:10.172Z,10.07
2019-01-11T04:56:37.355Z,9.80
2019-01-11T04:59:04.815Z,11.17
2019-01-11T05:01:31.949Z,10.73
2019-01-11T05:03:59.123Z,10.67
2019-01-11T05:06:26.210Z,12.27
2019-01-11T05:08:53.276Z,12.80
2019-01-11T05:11:20.377Z,11.00
2019-01-11T05:13:51.855Z,12.83
2019-01-11T05:16:18.940Z,12.67
2019-01-11T05:18:46.115Z,12.50
2019-01-11T05:21:13.266Z,13.40
2019-01-11T05:23:40.447Z,13.80
2019-01-11T05:26:07.638Z,12.13
2019-01-11T05:28:35.075Z,14.33
2019-01-11T05:31:02.231Z,13.37
2019-01-11T05:33:30.413Z,12.70
2019-01-11T05:35:57.504Z,13.33
2019-01-11T05:38:24.665Z,13.70
2019-01-11T05:40:51.892Z,14.33
2019-01-11T05:43:19.069Z,14.77
2019-01-11T05:45:46.213Z,14.33
2019-01-11T05:48:13.397Z,14.90
2019-01-11T05:50:40.465Z,14.50
2019-01-11T05:53:07.569Z,16.80
2019-01-11T05:55:45.265Z,16.00
2019-01-11T05:58:43.853Z,15.53
2019-01-11T06:01:11.990Z,15.33
2019-01-11T06:03:39.262Z,14.30
2019-01-11T06:06:06.502Z,16.37
2019-01-11T06:08:34.028Z,15.40
2019-01-11T06:11:01.164Z,16.87
2019-01-11T06:13:28.250Z,16.50
2019-01-11T06:15:55.438Z,18.00
2019-01-11T06:18:22.591Z,18.67
2019-01-11T06:20:50.091Z,18.00
2019-01-11T06:23:17.270Z,17.40
2019-01-11T06:25:44.433Z,17.23
2019-01-11T06:28:11.640Z,17.27
2019-01-11T06:30:38.816Z,19.30
2019-01-11T06:33:05.856Z,17.93
2019-01-11T06:35:34.820Z,21.50
2019-01-11T06:38:02.319Z,18.90
2019-01-11T06:40:29.469Z,20.60
2019-01-11T06:42:56.636Z,21.00
2019-01-11T06:45:23.842Z,20.93
2019-01-11T06:47:50.884Z,20.77
2019-01-11T06:50:17.958Z,19.90
2019-01-11T06:52:45.128Z,21.80
2019-01-11T06:55:12.391Z,20.83
2019-01-11T06:57:39.570Z,20.23
2019-01-11T07:00:09.766Z,21.87
2019-01-11T07:02:36.948Z,19.73
2019-01-11T07:05:05.180Z,22.27
2019-01-11T07:07:32.352Z,20.53
2019-01-11T07:09:59.550Z,20.10
2019-01-11T07:12:26.739Z,20.63
2019-01-11T07:14:53.923Z,21.13
2019-01-11T07:17:21.126Z,18.83
2019-01-11T07:19:48.315Z,20.90
2019-01-11T07:22:15.566Z,21.87
2019-01-11T07:24:42.724Z,20.77
2019-01-11T07:27:10.242Z,18.83
2019-01-11T07:29:37.766Z,21.57
2019-01-11T07:32:04.940Z,22.40
2019-01-11T07:34:32.127Z,20.87
2019-01-11T07:37:00.738Z,21.50
2019-01-11T07:39:29.604Z,22.53
2019-01-11T07:41:56.755Z,22.40
2019-01-11T07:44:24.641Z,20.00
2019-01-11T07:46:51.951Z,20.63
2019-01-11T07:49:23.117Z,21.37
2019-01-11T07:51:48.212Z,20.27
2019-01-11T07:54:15.382Z,18.53
2019-01-11T07:56:42.533Z,20.17
2019-01-11T07:59:09.726Z,18.20
2019-01-11T08:01:36.898Z,20.77
2019-01-11T08:04:04.607Z,18.73
2019-01-11T08:06:31.681Z,20.50
2019-01-11T08:08:59.118Z,21.93
2019-01-11T08:11:26.281Z,20.40
2019-01-11T08:13:53.379Z,18.63
2019-01-11T08:16:20.532Z,19.17
2019-01-11T08:18:47.633Z,18.00
2019-01-11T08:21:14.810Z,17.97
2019-01-11T08:23:42.245Z,17.50
2019-01-11T08:26:09.497Z,17.20
2019-01-11T08:28:36.833Z,17.63
2019-01-11T08:31:03.996Z,16.70
2019-01-11T08:33:32.855Z,16.00
2019-01-11T08:36:01.068Z,15.43
2019-01-11T08:38:28.861Z,16.87
2019-01-11T08:40:56.013Z,16.97
2019-01-11T08:43:23.241Z,14.00
2019-01-11T08:45:50.684Z,14.33
2019-01-11T08:48:17.791Z,13.57
2019-01-11T08:50:46.388Z,15.40
2019-01-11T08:53:13.554Z,16.07
2019-01-11T08:55:40.652Z,14.80
2019-01-11T08:58:07.831Z,15.77
2019-01-11T09:00:34.904Z,16.40
2019-01-11T09:03:02.100Z,15.60
2019-01-11T09:05:29.987Z,16.37
2019-01-11T09:07:57.221Z,17.33
2019-01-11T09:10:24.814Z,16.53
2019-01-11T09:12:52.018Z,15.63
2019-01-11T09:15:19.176Z,14.87
2019-01-11T09:18:11.672Z,15.03
2019-01-11T09:20:38.758Z,16.50
2019-01-11T09:23:06.262Z,14.73
2019-01-11T09:25:33.722Z,16.17
2019-01-11T09:28:00.937Z,16.37
2019-01-11T09:30:28.200Z,17.20
2019-01-11T09:32:55.560Z,16.43
2019-01-11T09:35:23.241Z,14.77
2019-01-11T09:37:50.774Z,14.70
2019-01-11T09:40:17.972Z,15.07
2019-01-11T09:42:45.251Z,14.70
2019-01-11T09:45:12.406Z,14.63
2019-01-11T09:47:39.544Z,14.70
2019-01-11T09:50:07.051Z,14.67
2019-01-11T09:52:34.478Z,14.50
2019-01-11T09:55:02.157Z,14.53
2019-01-11T09:57:29.318Z,14.13
2019-01-11T09:59:56.600Z,15.20
2019-01-11T10:02:37.453Z,12.53
2019-01-11T10:05:07.110Z,14.50
2019-01-11T10:07:34.387Z,15.97
2019-01-11T10:10:01.609Z,13.47
2019-01-11T10:12:28.869Z,13.47
2019-01-11T10:14:56.053Z,13.67
2019-01-11T10:17:23.505Z,14.53
2019-01-11T10:19:50.752Z,15.30
2019-01-11T10:22:17.896Z,13.80
2019-01-11T10:24:45.142Z,14.20
2019-01-11T10:27:12.323Z,14.90
2019-01-11T10:29:39.364Z,14.80
2019-01-11T10:32:06.931Z,14.77
2019-01-11T10:34:34.378Z,12.77
2019-01-11T10:37:01.582Z,13.70
2019-01-11T10:39:28.697Z,14.13
2019-01-11T10:41:55.888Z,11.63
2019-01-11T10:44:23.037Z,12.60
2019-01-11T10:46:50.269Z,13.17
2019-01-11T10:49:17.633Z,16.60
2019-01-11T10:51:45.136Z,16.37
2019-01-11T10:54:21.620Z,16.17
2019-01-11T10:56:49.082Z,15.60
2019-01-11T10:59:16.259Z,16.13
2019-01-11T11:01:43.460Z,15.97
2019-01-11T11:04:10.627Z,16.60
2019-01-11T11:06:37.827Z,14.70
2019-01-11T11:09:06.892Z,15.90
2019-01-11T11:11:34.075Z,18.20
2019-01-11T11:14:01.253Z,17.70
2019-01-11T11:16:28.314Z,16.77
2019-01-11T11:18:55.468Z,17.63
2019-01-11T11:21:22.582Z,18.00
2019-01-11T11:23:53.944Z,16.27
2019-01-11T11:26:19.728Z,16.90
2019-01-11T11:28:46.899Z,15.90
2019-01-11T11:31:14.103Z,16.40
2019-01-11T11:33:41.623Z,15.67
2019-01-11T11:36:08.878Z,15.83
2019-01-11T11:38:36.094Z,16.30
2019-01-11T11:41:03.267Z,17.30
2019-01-11T11:43:30.448Z,15.93
2019-01-11T11:45:57.643Z,16.50
2019-01-11T11:48:24.803Z,16.47
2019-01-11T11:50:51.877Z,16.70
2019-01-11T11:53:19.141Z,18.50
2019-01-11T11:55:46.552Z,16.60
2019-01-11T11:58:13.611Z,17.27
2019-01-11T12:00:40.835Z,18.70
2019-01-11T12:03:07.901Z,16.00
2019-01-11T12:05:34.948Z,16.70
2019-01-11T12:08:02.209Z,16.87
2019-01-11T12:10:29.366Z,16.97
2019-01-11T12:12:56.570Z,17.50
2019-01-11T12:15:23.846Z,15.77
2019-01-11T12:17:50.932Z,17.97
2019-01-11T12:20:29.160Z,17.23
2019-01-11T12:22:56.352Z,16.70
2019-01-11T12:25:23.510Z,16.20
2019-01-11T12:27:50.774Z,16.50
2019-01-11T12:30:18.040Z,17.40
2019-01-11T12:32:46.136Z,17.03
2019-01-11T12:35:13.629Z,16.20
2019-01-11T12:37:40.851Z,16.20
2019-01-11T12:40:09.208Z,17.17
2019-01-11T12:42:36.442Z,15.57
2019-01-11T12:45:04.634Z,15.20
2019-01-11T12:47:31.822Z,16.60
2019-01-11T12:49:58.924Z,18.37
2019-01-11T12:52:26.118Z,16.90
2019-01-11T12:54:53.534Z,18.23
2019-01-11T12:57:20.796Z,16.63
2019-01-11T12:59:47.983Z,18.60
2019-01-11T13:02:15.615Z,19.00
2019-01-11T13:04:42.836Z,19.23
2019-01-11T13:07:10.000Z,18.30
2019-01-11T13:09:37.213Z,17.57
2019-01-11T13:12:04.937Z,18.90
2019-01-11T13:14:32.098Z,18.27
2019-01-11T13:16:59.302Z,19.60
2019-01-11T13:19:26.483Z,20.30
2019-01-11T13:21:53.659Z,17.73
2019-01-11T13:24:20.870Z,19.53
2019-01-11T13:26:48.030Z,18.10
2019-01-11T13:29:15.186Z,18.03
2019-01-11T13:31:42.656Z,19.60
2019-01-11T13:34:09.851Z,18.10
2019-01-11T13:36:36.997Z,18.40
2019-01-11T13:39:08.842Z,19.43
2019-01-11T13:41:36.140Z,17.63
2019-01-11T13:44:03.422Z,18.10
2019-01-11T13:46:30.632Z,18.57
2019-01-11T13:48:57.839Z,19.77
2019-01-11T13:51:25.062Z,17.57
2019-01-11T13:53:52.226Z,18.27
2019-01-11T13:56:19.753Z,18.00
2019-01-11T13:58:46.936Z,19.30
2019-01-11T14:01:14.378Z,18.43
2019-01-11T14:03:41.805Z,19.37
2019-01-11T14:06:08.896Z,18.10
2019-01-11T14:08:35.997Z,17.80
2019-01-11T14:11:03.199Z,17.97
2019-01-11T14:13:30.290Z,18.87
2019-01-11T14:15:57.497Z,17.97
2019-01-11T14:18:24.731Z,17.53
2019-01-11T14:20:51.745Z,17.50
2019-01-11T14:23:19.001Z,17.43
2019-01-11T14:25:46.184Z,18.27
2019-01-11T14:28:13.408Z,17.83
2019-01-11T14:30:41.133Z,17.97
2019-01-11T14:33:08.470Z,19.80
2019-01-11T14:35:35.533Z,17.47
2019-01-11T14:38:02.836Z,18.00
2019-01-11T14:40:30.106Z,18.37
2019-01-11T14:42:57.342Z,16.77
2019-01-11T14:45:24.547Z,19.00
2019-01-11T14:47:51.657Z,17.83
2019-01-11T14:50:18.863Z,17.87
2019-01-11T14:52:46.144Z,18.43
2019-01-11T14:55:13.268Z,17.63
2019-01-11T14:57:40.467Z,19.37
2019-01-11T15:00:10.982Z,20.07
2019-01-11T15:02:38.200Z,17.03
2019-01-11T15:05:06.640Z,17.90
2019-01-11T15:07:33.854Z,17.63
2019-01-11T15:10:01.043Z,18.23
2019-01-11T15:12:28.224Z,18.40
2019-01-11T15:14:55.406Z,19.40
2019-01-11T15:17:22.626Z,15.93
2019-01-11T15:19:49.797Z,17.40
2019-01-11T15:22:16.992Z,17.27
2019-01-11T15:24:44.190Z,15.80
2019-01-11T15:27:11.392Z,16.47
2019-01-11T15:29:38.865Z,16.90
2019-01-11T15:32:06.100Z,17.40
2019-01-11T15:34:33.272Z,17.00
2019-01-11T15:37:00.392Z,18.60
2019-01-11T15:39:27.574Z,16.70
2019-01-11T15:41:54.772Z,17.60
2019-01-11T15:44:22.050Z,17.50
2019-01-11T15:46:49.279Z,18.13
2019-01-11T15:49:16.436Z,17.87
2019-01-11T15:51:43.921Z,17.77
2019-01-11T15:54:11.133Z,18.97
2019-01-11T15:56:38.641Z,18.87
2019-01-11T15:59:05.801Z,18.20
2019-01-11T16:01:33.278Z,17.33
2019-01-11T16:04:06.566Z,16.97
2019-01-11T16:06:34.970Z,19.10
2019-01-11T16:09:27.424Z,19.27
2019-01-11T16:11:57.969Z,17.43
2019-01-11T16:14:43.601Z,18.50
2019-01-11T16:17:12.693Z,16.97
2019-01-11T16:19:39.849Z,18.43
2019-01-11T16:22:07.229Z,18.10
2019-01-11T16:24:34.777Z,20.00
2019-01-11T16:27:01.960Z,17.70
2019-01-11T16:29:29.087Z,17.87
2019-01-11T16:31:56.285Z,18.20
2019-01-11T16:34:23.685Z,16.67
2019-01-11T16:36:50.925Z,17.53
2019-01-11T16:39:18.183Z,18.50
2019-01-11T16:41:45.343Z,17.10
2019-01-11T16:44:12.546Z,18.33
2019-01-11T16:46:39.814Z,16.43
2019-01-11T16:49:07.326Z,18.00
2019-01-11T16:51:34.507Z,16.33
2019-01-11T16:54:01.682Z,16.90
2019-01-11T16:56:29.110Z,17.43
2019-01-11T16:58:56.269Z,16.27
2019-01-11T17:01:23.623Z,16.83
2019-01-11T17:03:50.814Z,18.17
2019-01-11T17:06:18.001Z,18.00
2019-01-11T17:08:45.462Z,18.93
2019-01-11T17:11:12.849Z,17.13
2019-01-11T17:13:40.654Z,17.77
2019-01-11T17:16:08.330Z,17.60
2019-01-11T17:18:35.496Z,17.93
2019-01-11T17:21:02.954Z,18.60
2019-01-11T17:23:30.161Z,17.90
2019-01-11T17:25:57.645Z,17.23
2019-01-11T17:28:25.133Z,18.97
2019-01-11T17:30:52.634Z,18.90
2019-01-11T17:33:19.716Z,16.90
2019-01-11T17:35:46.782Z,20.33
2019-01-11T17:38:14.058Z,17.37
2019-01-11T17:40:41.194Z,16.87
2019-01-11T17:43:08.633Z,17.53
2019-01-11T17:45:35.845Z,17.10
2019-01-11T17:48:03.556Z,18.03
2019-01-11T17:50:30.625Z,17.03
2019-01-11T17:52:59.977Z,16.47
2019-01-11T17:55:27.272Z,18.20
2019-01-11T17:57:54.414Z,16.20
2019-01-11T18:00:21.601Z,17.70
2019-01-11T18:02:48.925Z,16.10
2019-01-11T18:05:16.163Z,15.03
2019-01-11T18:07:43.550Z,17.73
2019-01-11T18:10:10.793Z,16.37
2019-01-11T18:12:38.128Z,17.37
2019-01-11T18:15:08.622Z,17.10
2019-01-11T18:17:35.820Z,17.70
2019-01-11T18:20:04.898Z,18.00
2019-01-11T18:22:32.399Z,16.93
2019-01-11T18:24:59.586Z,15.80
2019-01-11T18:27:27.118Z,16.50
2019-01-11T18:29:54.339Z,17.03
2019-01-11T18:32:21.516Z,18.73
2019-01-11T18:34:48.588Z,18.90
2019-01-11T18:37:15.816Z,17.60
2019-01-11T18:39:42.914Z,16.97
2019-01-11T18:42:10.093Z,19.70
2019-01-11T18:44:38.179Z,18.30
2019-01-11T18:47:05.450Z,18.47
2019-01-11T18:49:32.626Z,18.43
2019-01-11T18:51:59.853Z,18.00
2019-01-11T18:54:27.016Z,19.00
2019-01-11T18:56:54.511Z,17.77
2019-01-11T18:59:21.781Z,18.73
2019-01-11T19:01:49.005Z,18.63
2019-01-11T19:04:16.505Z,17.50
2019-01-11T19:06:44.418Z,18.40
2019-01-11T19:09:11.592Z,17.83
2019-01-11T19:11:38.818Z,18.30
2019-01-11T19:14:06.343Z,16.67
2019-01-11T19:16:33.559Z,19.90
2019-01-11T19:19:00.725Z,18.30
2019-01-11T19:21:28.143Z,18.83
2019-01-11T19:23:55.343Z,18.97
2019-01-11T19:26:22.690Z,19.03
2019-01-11T19:28:49.912Z,18.53
2019-01-11T19:31:17.059Z,15.83
2019-01-11T19:33:44.483Z,17.80
2019-01-11T19:36:11.713Z,17.53
2019-01-11T19:38:38.930Z,18.73
2019-01-11T19:41:06.121Z,15.77
2019-01-11T19:43:33.388Z,16.90
2019-01-11T19:46:00.552Z,16.20
2019-01-11T19:48:27.816Z,18.43
2019-01-11T19:50:55.231Z,16.43
2019-01-11T19:53:27.394Z,16.53
2019-01-11T19:55:51.502Z,16.47
2019-01-11T19:58:18.608Z,16.90
2019-01-11T20:00:45.852Z,14.67
2019-01-11T20:03:12.970Z,15.47
2019-01-11T20:05:40.216Z,17.17
2019-01-11T20:08:07.753Z,15.83
2019-01-11T20:10:34.939Z,16.70
2019-01-11T20:13:02.313Z,16.43
2019-01-11T20:15:29.943Z,16.73
2019-01-11T20:17:57.378Z,18.30
2019-01-11T20:20:24.620Z,17.63
2019-01-11T20:22:51.787Z,18.13
2019-01-11T20:25:20.218Z,18.17
2019-01-11T20:27:47.457Z,18.10
2019-01-11T20:30:17.000Z,18.63
2019-01-11T20:32:44.262Z,17.63
2019-01-11T20:35:11.575Z,16.93
2019-01-11T20:37:39.376Z,17.93
2019-01-11T20:40:08.981Z,17.63
2019-01-11T20:42:36.202Z,17.03
2019-01-11T20:45:04.401Z,17.57
2019-01-11T20:47:31.565Z,18.83
2019-01-11T20:49:58.796Z,17.83
2019-01-11T20:52:25.998Z,18.90
2019-01-11T20:54:53.201Z,17.60
2019-01-11T20:57:20.430Z,17.13
2019-01-11T20:59:47.640Z,18.93
2019-01-11T21:02:14.796Z,17.00
2019-01-11T21:04:42.008Z,15.90
2019-01-11T21:07:09.180Z,17.83
2019-01-11T21:09:36.402Z,17.17
2019-01-11T21:12:03.818Z,15.33
2019-01-11T21:14:31.036Z,15.70
2019-01-11T21:16:58.523Z,16.00
2019-01-11T21:19:25.718Z,15.50
2019-01-11T21:21:52.904Z,15.40
2019-01-11T21:24:20.114Z,18.73
2019-01-11T21:26:47.197Z,15.90
2019-01-11T21:29:14.396Z,16.67
2019-01-11T21:31:41.511Z,17.33
2019-01-11T21:34:08.715Z,14.50
2019-01-11T21:36:35.922Z,16.63
2019-01-11T21:39:05.037Z,16.33
2019-01-11T21:41:32.287Z,16.23
2019-01-11T21:43:59.447Z,17.07
2019-01-11T21:46:26.934Z,16.73
2019-01-11T21:48:54.626Z,16.20
2019-01-11T21:51:21.851Z,15.97
2019-01-11T21:53:55.593Z,16.23
2019-01-11T21:56:18.134Z,16.90
2019-01-11T21:58:45.308Z,16.10
2019-01-11T22:01:12.536Z,17.50
2019-01-11T22:03:39.761Z,15.90
2019-01-11T22:06:06.870Z,16.30
2019-01-11T22:08:34.199Z,16.83
2019-01-11T22:11:01.445Z,16.40
2019-01-11T22:13:28.520Z,17.10
2019-01-11T22:15:55.691Z,17.73
2019-01-11T22:18:22.899Z,16.50
2019-01-11T22:20:49.976Z,16.47
2019-01-11T22:23:23.754Z,15.53
2019-01-11T22:25:46.575Z,14.27
2019-01-11T22:28:13.728Z,14.77
2019-01-11T22:30:40.893Z,17.23
2019-01-11T22:33:08.117Z,17.30
2019-01-11T22:35:35.404Z,17.00
2019-01-11T22:38:02.682Z,16.87
2019-01-11T22:40:29.901Z,16.30
2019-01-11T22:42:58.115Z,16.40
2019-01-11T22:45:25.326Z,16.23
2019-01-11T22:47:52.427Z,16.40
2019-01-11T22:50:19.640Z,14.57
2019-01-11T22:52:46.851Z,16.47
2019-01-11T22:55:14.676Z,15.77
2019-01-11T22:57:41.851Z,17.43
2019-01-11T23:00:34.486Z,16.03
2019-01-11T23:03:02.337Z,16.10
2019-01-11T23:05:29.833Z,16.50
2019-01-11T23:08:00.387Z,15.57
2019-01-11T23:10:56.085Z,15.33
2019-01-11T23:13:23.317Z,16.93
2019-01-11T23:15:54.749Z,15.27
2019-01-11T23:18:23.908Z,16.00
2019-01-11T23:20:53.818Z,14.60
2019-01-11T23:23:21.010Z,15.53
2019-01-11T23:25:48.205Z,14.50
2019-01-11T23:28:15.438Z,16.30
2019-01-11T23:30:42.910Z,15.70
2019-01-11T23:33:10.356Z,17.80
2019-01-11T23:35:37.852Z,15.73
2019-01-11T23:38:05.108Z,15.97
2019-01-11T23:40:32.323Z,15.80
2019-01-11T23:42:59.561Z,15.73
2019-01-11T23:45:26.722Z,15.33
2019-01-11T23:47:53.787Z,16.70
2019-01-11T23:50:21.032Z,17.30
2019-01-11T23:52:48.107Z,16.70
2019-01-11T23:55:15.315Z,15.20
2019-01-11T23:57:42.410Z,16.27
